createdAt,value
2017-01-19T00:00:16.097Z,-7.64
2017-01-19T00:01:16.714Z,-7.61
2017-01-19T00:02:17.076Z,-7.61
2017-01-19T00:03:17.162Z,-7.74
2017-01-19T00:04:17.195Z,-7.79
2017-01-19T00:05:16.381Z,-7.64
2017-01-19T00:06:17.185Z,-7.54
2017-01-19T00:07:17.160Z,-7.44
2017-01-19T00:08:16.951Z,-7.38
2017-01-19T00:09:16.338Z,-7.29
2017-01-19T00:10:16.825Z,-7.33
2017-01-19T00:11:17.503Z,-7.26
2017-01-19T00:12:17.387Z,-7.28
2017-01-19T00:13:17.318Z,-7.28
2017-01-19T00:14:17.237Z,-7.22
2017-01-19T00:15:16.291Z,-7.28
2017-01-19T00:16:16.610Z,-7.23
2017-01-19T00:17:16.719Z,-7.13
2017-01-19T00:18:16.742Z,-7.15
2017-01-19T00:19:16.757Z,-7.13
2017-01-19T00:20:16.564Z,-7.08
2017-01-19T00:21:16.703Z,-7.14
2017-01-19T00:22:16.523Z,-7.03
2017-01-19T00:23:17.275Z,-6.97
2017-01-19T00:24:16.880Z,-7.1
2017-01-19T00:25:17.366Z,-7.1
2017-01-19T00:26:16.390Z,-7.15
2017-01-19T00:27:17.628Z,-7.13
2017-01-19T00:28:17.715Z,-7.31
2017-01-19T00:29:16.815Z,-7.25
2017-01-19T00:30:17.597Z,-7.4
2017-01-19T00:31:17.399Z,-7.4
2017-01-19T00:32:17.485Z,-7.42
2017-01-19T00:33:16.754Z,-7.43
2017-01-19T00:34:16.765Z,-7.56
2017-01-19T00:35:17.390Z,-7.58
2017-01-19T00:36:16.846Z,-7.53
2017-01-19T00:37:17.683Z,-7.5
2017-01-19T00:38:16.809Z,-7.67
2017-01-19T00:39:16.989Z,-7.63
2017-01-19T00:40:16.850Z,-7.68
2017-01-19T00:41:17.336Z,-7.7
2017-01-19T00:42:16.842Z,-7.72
2017-01-19T00:43:16.905Z,-7.64
2017-01-19T00:44:17.274Z,-7.53
2017-01-19T00:45:16.914Z,-7.4
2017-01-19T00:46:17.154Z,-7.26
2017-01-19T00:47:16.984Z,-7.15
2017-01-19T00:48:17.870Z,-7.07
2017-01-19T00:49:18.312Z,-7.1
2017-01-19T00:50:18.630Z,-6.96
2017-01-19T00:51:16.760Z,-6.99
2017-01-19T00:52:17.559Z,-7.08
2017-01-19T00:53:17.503Z,-6.92
2017-01-19T00:54:17.549Z,-7.04
2017-01-19T00:55:17.223Z,-7
2017-01-19T00:56:17.292Z,-7.13
2017-01-19T00:57:16.491Z,-7.15
2017-01-19T00:58:16.923Z,-7.23
2017-01-19T00:59:17.352Z,-7.31
2017-01-19T01:00:17.835Z,-7.32
2017-01-19T01:01:16.889Z,-7.23
2017-01-19T01:02:17.477Z,-7.21
2017-01-19T01:03:16.869Z,-7.17
2017-01-19T01:04:16.957Z,-7
2017-01-19T01:05:17.002Z,-7.05
2017-01-19T01:06:17.893Z,-6.94
2017-01-19T01:07:17.176Z,-6.93
2017-01-19T01:08:17.340Z,-6.87
2017-01-19T01:09:18.405Z,-6.72
2017-01-19T01:10:17.336Z,-6.63
2017-01-19T01:11:17.371Z,-6.6
2017-01-19T01:12:17.861Z,-6.54
2017-01-19T01:13:18.112Z,-6.54
2017-01-19T01:14:17.497Z,-6.6
2017-01-19T01:15:17.241Z,-6.54
2017-01-19T01:16:17.324Z,-6.66
2017-01-19T01:17:17.456Z,-6.66
2017-01-19T01:18:17.459Z,-6.69
2017-01-19T01:19:17.870Z,-6.6
2017-01-19T01:20:17.612Z,-6.65
2017-01-19T01:21:18.291Z,-6.61
2017-01-19T01:22:17.071Z,-6.68
2017-01-19T01:23:18.691Z,-6.68
2017-01-19T01:24:17.155Z,-6.84
2017-01-19T01:25:17.252Z,-6.92
2017-01-19T01:26:19.487Z,-6.92
2017-01-19T01:27:17.368Z,-7
2017-01-19T01:28:17.108Z,-7.03
2017-01-19T01:29:17.429Z,-7.13
2017-01-19T01:30:17.681Z,-7.14
2017-01-19T01:31:17.162Z,-7.22
2017-01-19T01:32:17.482Z,-7.33
2017-01-19T01:33:17.470Z,-7.36
2017-01-19T01:34:17.374Z,-7.42
2017-01-19T01:35:17.642Z,-7.43
2017-01-19T01:36:17.657Z,-7.61
2017-01-19T01:37:18.552Z,-7.53
2017-01-19T01:38:17.900Z,-7.61
2017-01-19T01:39:18.212Z,-7.47
2017-01-19T01:40:18.532Z,-7.31
2017-01-19T01:41:18.148Z,-7
2017-01-19T01:42:18.763Z,-6.97
2017-01-19T01:43:18.099Z,-6.93
2017-01-19T01:44:18.157Z,-6.89
2017-01-19T01:45:17.889Z,-6.75
2017-01-19T01:46:17.883Z,-6.76
2017-01-19T01:47:17.891Z,-6.72
2017-01-19T01:48:17.867Z,-6.68
2017-01-19T01:49:18.345Z,-6.72
2017-01-19T01:50:17.911Z,-6.68
2017-01-19T01:51:17.891Z,-6.72
2017-01-19T01:52:18.965Z,-6.58
2017-01-19T01:53:17.485Z,-6.6
2017-01-19T01:54:18.341Z,-6.54
2017-01-19T01:55:17.543Z,-6.5
2017-01-19T01:56:18.484Z,-6.52
2017-01-19T01:57:18.426Z,-6.54
2017-01-19T01:58:17.608Z,-6.46
2017-01-19T01:59:18.277Z,-6.56
2017-01-19T02:00:17.769Z,-6.54
2017-01-19T02:01:18.148Z,-6.44
2017-01-19T02:02:17.408Z,-6.39
2017-01-19T02:03:18.562Z,-6.49
2017-01-19T02:04:17.350Z,-6.53
2017-01-19T02:05:18.278Z,-6.53
2017-01-19T02:06:18.306Z,-6.49
2017-01-19T02:07:17.779Z,-6.5
2017-01-19T02:08:18.327Z,-6.38
2017-01-19T02:09:18.766Z,-6.44
2017-01-19T02:10:18.896Z,-6.35
2017-01-19T02:11:17.730Z,-6.47
2017-01-19T02:12:17.858Z,-6.44
2017-01-19T02:13:18.309Z,-6.5
2017-01-19T02:14:17.888Z,-6.52
2017-01-19T02:15:18.079Z,-6.49
2017-01-19T02:16:18.068Z,-6.5
2017-01-19T02:17:18.483Z,-6.54
2017-01-19T02:18:18.171Z,-6.52
2017-01-19T02:19:19.201Z,-6.58
2017-01-19T02:20:17.640Z,-6.66
2017-01-19T02:21:18.086Z,-6.6
2017-01-19T02:22:19.002Z,-6.56
2017-01-19T02:23:17.654Z,-6.61
2017-01-19T02:24:18.735Z,-6.6
2017-01-19T02:25:18.581Z,-6.72
2017-01-19T02:26:18.168Z,-6.81
2017-01-19T02:27:18.790Z,-6.76
2017-01-19T02:28:18.493Z,-6.79
2017-01-19T02:29:19.047Z,-6.75
2017-01-19T02:30:18.539Z,-6.84
2017-01-19T02:31:18.841Z,-6.84
2017-01-19T02:32:18.462Z,-6.9
2017-01-19T02:33:18.547Z,-6.97
2017-01-19T02:34:17.692Z,-7.1
2017-01-19T02:35:18.802Z,-6.97
2017-01-19T02:36:18.562Z,-6.93
2017-01-19T02:37:19.191Z,-6.97
2017-01-19T02:38:18.485Z,-7.13
2017-01-19T02:39:18.804Z,-7.04
2017-01-19T02:40:18.631Z,-7.14
2017-01-19T02:41:18.453Z,-7.31
2017-01-19T02:42:18.406Z,-7.26
2017-01-19T02:43:18.343Z,-7.28
2017-01-19T02:44:18.743Z,-7.26
2017-01-19T02:45:18.047Z,-7.26
2017-01-19T02:46:18.008Z,-7.25
2017-01-19T02:47:19.137Z,-7.23
2017-01-19T02:48:18.114Z,-7.13
2017-01-19T02:49:18.731Z,-7.14
2017-01-19T02:50:18.815Z,-7.04
2017-01-19T02:51:18.439Z,-7
2017-01-19T02:52:18.298Z,-6.97
2017-01-19T02:53:18.327Z,-7.03
2017-01-19T02:54:18.029Z,-6.97
2017-01-19T02:55:18.321Z,-7.03
2017-01-19T02:56:18.386Z,-7.08
2017-01-19T02:57:19.337Z,-7.13
2017-01-19T02:58:18.444Z,-7.14
2017-01-19T02:59:18.342Z,-7.15
2017-01-19T03:00:18.717Z,-7.15
2017-01-19T03:01:18.786Z,-7.26
2017-01-19T03:02:17.800Z,-7.25
2017-01-19T03:03:18.220Z,-7.32
2017-01-19T03:04:19.152Z,-7.28
2017-01-19T03:05:18.399Z,-7.29
2017-01-19T03:06:18.385Z,-7.15
2017-01-19T03:07:18.235Z,-7.23
2017-01-19T03:08:18.817Z,-7.21
2017-01-19T03:09:18.291Z,-7.26
2017-01-19T03:10:19.222Z,-7.23
2017-01-19T03:11:18.707Z,-7.08
2017-01-19T03:12:18.727Z,-7.13
2017-01-19T03:13:18.187Z,-7.07
2017-01-19T03:14:18.782Z,-7.08
2017-01-19T03:15:18.702Z,-6.97
2017-01-19T03:16:18.544Z,-6.97
2017-01-19T03:17:19.472Z,-6.97
2017-01-19T03:18:18.793Z,-7.04
2017-01-19T03:19:18.318Z,-7
2017-01-19T03:20:18.632Z,-6.89
2017-01-19T03:21:19.290Z,-6.84
2017-01-19T03:22:18.717Z,-6.78
2017-01-19T03:23:18.880Z,-6.68
2017-01-19T03:24:19.078Z,-6.68
2017-01-19T03:25:19.336Z,-6.61
2017-01-19T03:26:18.831Z,-6.52
2017-01-19T03:27:18.832Z,-6.5
2017-01-19T03:28:18.880Z,-6.39
2017-01-19T03:29:18.016Z,-6.41
2017-01-19T03:30:18.944Z,-6.41
2017-01-19T03:31:18.652Z,-6.31
2017-01-19T03:32:18.767Z,-6.34
2017-01-19T03:33:18.649Z,-6.28
2017-01-19T03:34:18.696Z,-6.23
2017-01-19T03:35:18.463Z,-6.21
2017-01-19T03:36:18.835Z,-6.23
2017-01-19T03:37:18.387Z,-6.24
2017-01-19T03:38:18.702Z,-6.34
2017-01-19T03:39:18.804Z,-6.29
2017-01-19T03:40:19.628Z,-6.29
2017-01-19T03:41:18.612Z,-6.21
2017-01-19T03:42:19.438Z,-6.28
2017-01-19T03:43:18.402Z,-6.31
2017-01-19T03:44:19.081Z,-6.39
2017-01-19T03:45:24.723Z,-6.32
2017-01-19T03:46:18.544Z,-6.41
2017-01-19T03:47:18.973Z,-6.36
2017-01-19T03:48:18.826Z,-6.35
2017-01-19T03:49:18.617Z,-6.28
2017-01-19T03:50:18.695Z,-6.31
2017-01-19T03:51:19.059Z,-6.28
2017-01-19T03:52:18.642Z,-6.32
2017-01-19T03:53:18.834Z,-6.32
2017-01-19T03:54:19.479Z,-6.24
2017-01-19T03:55:19.221Z,-6.24
2017-01-19T03:56:19.098Z,-6.2
2017-01-19T03:57:19.650Z,-6.21
2017-01-19T03:58:18.836Z,-6.23
2017-01-19T03:59:20.515Z,-6.1
2017-01-19T04:00:19.144Z,-6.1
2017-01-19T04:01:18.695Z,-6.07
2017-01-19T04:02:19.310Z,-6.02
2017-01-19T04:03:19.384Z,-6.03
2017-01-19T04:04:19.198Z,-5.95
2017-01-19T04:05:18.996Z,-5.9
2017-01-19T04:06:18.483Z,-5.95
2017-01-19T04:07:19.772Z,-5.95
2017-01-19T04:08:19.205Z,-5.93
2017-01-19T04:09:19.039Z,-5.99
2017-01-19T04:10:18.660Z,-5.96
2017-01-19T04:11:19.497Z,-5.92
2017-01-19T04:12:18.699Z,-5.76
2017-01-19T04:13:18.478Z,-5.9
2017-01-19T04:14:18.581Z,-5.82
2017-01-19T04:15:19.407Z,-5.89
2017-01-19T04:16:19.026Z,-5.72
2017-01-19T04:17:18.940Z,-5.74
2017-01-19T04:18:19.226Z,-5.75
2017-01-19T04:19:20.007Z,-5.75
2017-01-19T04:20:18.685Z,-5.74
2017-01-19T04:21:19.411Z,-5.82
2017-01-19T04:22:19.241Z,-5.67
2017-01-19T04:23:18.522Z,-5.71
2017-01-19T04:24:18.832Z,-5.66
2017-01-19T04:25:18.944Z,-5.67
2017-01-19T04:26:20.304Z,-5.56
2017-01-19T04:27:18.484Z,-5.6
2017-01-19T04:28:18.877Z,-5.49
2017-01-19T04:29:19.598Z,-5.54
2017-01-19T04:30:19.041Z,-5.57
2017-01-19T04:31:18.884Z,-5.43
2017-01-19T04:32:18.876Z,-5.56
2017-01-19T04:33:18.768Z,-5.43
2017-01-19T04:34:19.037Z,-5.45
2017-01-19T04:35:20.031Z,-5.47
2017-01-19T04:36:19.297Z,-5.36
2017-01-19T04:37:20.047Z,-5.4
2017-01-19T04:38:18.949Z,-5.39
2017-01-19T04:39:19.180Z,-5.42
2017-01-19T04:40:18.806Z,-5.36
2017-01-19T04:41:19.159Z,-5.43
2017-01-19T04:42:19.965Z,-5.28
2017-01-19T04:43:18.917Z,-5.36
2017-01-19T04:44:19.827Z,-5.35
2017-01-19T04:45:19.008Z,-5.28
2017-01-19T04:46:19.313Z,-5.27
2017-01-19T04:47:19.240Z,-5.25
2017-01-19T04:48:19.403Z,-5.27
2017-01-19T04:49:19.218Z,-5.24
2017-01-19T04:50:18.889Z,-5.25
2017-01-19T04:51:20.075Z,-5.29
2017-01-19T04:52:19.744Z,-5.25
2017-01-19T04:53:20.106Z,-5.28
2017-01-19T04:54:18.883Z,-5.22
2017-01-19T04:55:19.082Z,-5.25
2017-01-19T04:56:19.518Z,-5.18
2017-01-19T04:57:19.731Z,-5.24
2017-01-19T04:58:19.401Z,-5.19
2017-01-19T04:59:20.054Z,-5.19
2017-01-19T05:00:20.120Z,-5.1
2017-01-19T05:01:19.215Z,-5.1
2017-01-19T05:02:19.482Z,-5.09
2017-01-19T05:03:20.807Z,-5.17
2017-01-19T05:04:19.720Z,-5.13
2017-01-19T05:05:19.846Z,-5.13
2017-01-19T05:06:20.766Z,-5.02
2017-01-19T05:07:19.020Z,-5.14
2017-01-19T05:08:18.803Z,-5.1
2017-01-19T05:09:19.260Z,-5.06
2017-01-19T05:10:19.925Z,-5.08
2017-01-19T05:11:19.628Z,-5.05
2017-01-19T05:12:19.269Z,-4.98
2017-01-19T05:13:20.596Z,-5.05
2017-01-19T05:14:19.118Z,-4.95
2017-01-19T05:15:19.674Z,-4.96
2017-01-19T05:16:19.663Z,-4.95
2017-01-19T05:17:19.458Z,-4.89
2017-01-19T05:18:20.606Z,-5.02
2017-01-19T05:19:20.098Z,-4.85
2017-01-19T05:20:19.439Z,-4.96
2017-01-19T05:21:20.054Z,-4.84
2017-01-19T05:22:20.059Z,-4.95
2017-01-19T05:23:19.406Z,-4.85
2017-01-19T05:24:20.526Z,-4.89
2017-01-19T05:25:20.245Z,-4.92
2017-01-19T05:26:20.195Z,-4.91
2017-01-19T05:27:19.550Z,-4.87
2017-01-19T05:28:21.268Z,-4.79
2017-01-19T05:29:20.405Z,-4.92
2017-01-19T05:30:19.543Z,-4.91
2017-01-19T05:31:20.216Z,-4.91
2017-01-19T05:32:21.267Z,-4.81
2017-01-19T05:33:19.806Z,-4.96
2017-01-19T05:34:20.749Z,-4.95
2017-01-19T05:35:20.722Z,-4.88
2017-01-19T05:36:20.017Z,-4.91
2017-01-19T05:37:20.469Z,-4.81
2017-01-19T05:38:19.930Z,-4.79
2017-01-19T05:39:19.982Z,-4.88
2017-01-19T05:40:19.080Z,-4.89
2017-01-19T05:41:20.280Z,-4.84
2017-01-19T05:42:19.842Z,-4.88
2017-01-19T05:43:20.985Z,-4.88
2017-01-19T05:44:19.542Z,-4.96
2017-01-19T05:45:20.234Z,-4.89
2017-01-19T05:46:19.946Z,-4.98
2017-01-19T05:47:20.278Z,-4.91
2017-01-19T05:48:19.907Z,-5
2017-01-19T05:49:21.293Z,-5.06
2017-01-19T05:50:20.121Z,-5.08
2017-01-19T05:51:20.344Z,-5.1
2017-01-19T05:52:20.370Z,-5.03
2017-01-19T05:53:20.131Z,-4.98
2017-01-19T05:54:19.977Z,-5.03
2017-01-19T05:55:19.752Z,-5.02
2017-01-19T05:56:19.561Z,-5
2017-01-19T05:57:20.347Z,-5.14
2017-01-19T05:58:20.855Z,-5.05
2017-01-19T05:59:20.575Z,-5.1
2017-01-19T06:00:19.983Z,-5.05
2017-01-19T06:01:20.283Z,-4.96
2017-01-19T06:02:20.992Z,-5.02
2017-01-19T06:03:21.333Z,-5
2017-01-19T06:04:19.972Z,-4.99
2017-01-19T06:05:19.849Z,-5.1
2017-01-19T06:06:20.545Z,-5.02
2017-01-19T06:07:20.218Z,-5.05
2017-01-19T06:08:21.373Z,-5.1
2017-01-19T06:09:20.187Z,-5.1
2017-01-19T06:10:20.352Z,-5.17
2017-01-19T06:11:20.188Z,-5.17
2017-01-19T06:12:20.157Z,-5.1
2017-01-19T06:13:20.511Z,-5.14
2017-01-19T06:14:20.665Z,-5.1
2017-01-19T06:15:20.529Z,-5.1
2017-01-19T06:16:20.061Z,-5.17
2017-01-19T06:17:19.811Z,-5.19
2017-01-19T06:18:20.220Z,-5.21
2017-01-19T06:19:20.314Z,-5.18
2017-01-19T06:20:21.632Z,-5.27
2017-01-19T06:21:20.286Z,-5.17
2017-01-19T06:22:20.423Z,-5.22
2017-01-19T06:23:19.979Z,-5.24
2017-01-19T06:24:20.234Z,-5.18
2017-01-19T06:25:20.698Z,-5.18
2017-01-19T06:26:20.591Z,-5.24
2017-01-19T06:27:19.679Z,-5.22
2017-01-19T06:28:20.191Z,-5.24
2017-01-19T06:29:19.722Z,-5.17
2017-01-19T06:30:20.023Z,-5.14
2017-01-19T06:31:20.336Z,-5.18
2017-01-19T06:32:21.612Z,-5.17
2017-01-19T06:33:20.393Z,-5.21
2017-01-19T06:34:21.191Z,-5.14
2017-01-19T06:35:20.045Z,-5.17
2017-01-19T06:36:19.812Z,-5.13
2017-01-19T06:37:21.475Z,-5.09
2017-01-19T06:38:21.176Z,-5.13
2017-01-19T06:39:20.163Z,-4.98
2017-01-19T06:40:20.468Z,-4.99
2017-01-19T06:41:20.071Z,-4.98
2017-01-19T06:42:21.056Z,-4.92
2017-01-19T06:43:20.793Z,-4.98
2017-01-19T06:44:20.129Z,-5
2017-01-19T06:45:19.939Z,-4.91
2017-01-19T06:46:20.489Z,-4.92
2017-01-19T06:47:21.072Z,-4.96
2017-01-19T06:48:21.996Z,-4.91
2017-01-19T06:49:20.256Z,-4.96
2017-01-19T06:50:21.136Z,-4.88
2017-01-19T06:51:20.539Z,-4.81
2017-01-19T06:52:21.182Z,-4.85
2017-01-19T06:53:20.992Z,-4.88
2017-01-19T06:54:20.687Z,-4.85
2017-01-19T06:55:20.499Z,-4.82
2017-01-19T06:56:20.489Z,-4.88
2017-01-19T06:57:20.293Z,-4.88
2017-01-19T06:58:20.680Z,-4.71
2017-01-19T06:59:20.796Z,-4.75
2017-01-19T07:00:20.757Z,-4.78
2017-01-19T07:01:20.169Z,-4.78
2017-01-19T07:02:20.418Z,-4.79
2017-01-19T07:03:20.663Z,-4.82
2017-01-19T07:04:21.767Z,-4.73
2017-01-19T07:05:21.098Z,-4.82
2017-01-19T07:06:20.576Z,-4.78
2017-01-19T07:07:19.994Z,-4.82
2017-01-19T07:08:21.207Z,-4.78
2017-01-19T07:09:20.470Z,-4.73
2017-01-19T07:10:19.836Z,-4.79
2017-01-19T07:11:19.827Z,-4.77
2017-01-19T07:12:21.372Z,-4.66
2017-01-19T07:13:20.311Z,-4.75
2017-01-19T07:14:19.980Z,-4.71
2017-01-19T07:15:20.553Z,-4.75
2017-01-19T07:16:20.249Z,-4.69
2017-01-19T07:17:20.868Z,-4.71
2017-01-19T07:18:23.637Z,-4.78
2017-01-19T07:19:21.696Z,-4.79
2017-01-19T07:20:20.449Z,-4.55
2017-01-19T07:21:20.630Z,-4.71
2017-01-19T07:22:20.710Z,-4.59
2017-01-19T07:23:20.643Z,-4.67
2017-01-19T07:24:21.146Z,-4.75
2017-01-19T07:25:20.717Z,-4.67
2017-01-19T07:26:21.452Z,-4.66
2017-01-19T07:27:21.431Z,-4.57
2017-01-19T07:28:21.540Z,-4.6
2017-01-19T07:29:20.482Z,-4.67
2017-01-19T07:30:20.310Z,-4.7
2017-01-19T07:31:21.631Z,-4.64
2017-01-19T07:32:20.505Z,-4.69
2017-01-19T07:33:20.388Z,-4.66
2017-01-19T07:34:20.960Z,-4.64
2017-01-19T07:35:21.679Z,-4.6
2017-01-19T07:36:21.373Z,-4.6
2017-01-19T07:37:21.393Z,-4.57
2017-01-19T07:38:21.148Z,-4.63
2017-01-19T07:39:21.030Z,-4.57
2017-01-19T07:40:20.733Z,-4.57
2017-01-19T07:41:20.823Z,-4.55
2017-01-19T07:42:21.803Z,-4.49
2017-01-19T07:43:20.491Z,-4.53
2017-01-19T07:44:20.561Z,-4.49
2017-01-19T07:45:20.459Z,-4.46
2017-01-19T07:46:21.763Z,-4.53
2017-01-19T07:47:21.078Z,-4.46
2017-01-19T07:48:20.863Z,-4.45
2017-01-19T07:49:20.776Z,-4.42
2017-01-19T07:50:20.962Z,-4.39
2017-01-19T07:51:21.385Z,-4.41
2017-01-19T07:52:20.422Z,-4.39
2017-01-19T07:53:20.208Z,-4.41
2017-01-19T07:54:21.151Z,-4.34
2017-01-19T07:55:21.588Z,-4.39
2017-01-19T07:56:21.238Z,-4.43
2017-01-19T07:57:21.021Z,-4.45
2017-01-19T07:58:21.695Z,-4.46
2017-01-19T07:59:21.159Z,-4.43
2017-01-19T08:00:20.699Z,-4.41
2017-01-19T08:01:21.192Z,-4.41
2017-01-19T08:02:22.133Z,-4.32
2017-01-19T08:03:20.793Z,-4.42
2017-01-19T08:04:21.525Z,-4.35
2017-01-19T08:05:20.945Z,-4.32
2017-01-19T08:06:21.346Z,-4.27
2017-01-19T08:07:21.054Z,-4.35
2017-01-19T08:08:21.070Z,-4.3
2017-01-19T08:09:21.464Z,-4.3
2017-01-19T08:10:20.600Z,-4.28
2017-01-19T08:11:21.494Z,-4.28
2017-01-19T08:12:21.557Z,-4.24
2017-01-19T08:13:20.953Z,-4.27
2017-01-19T08:14:21.525Z,-4.25
2017-01-19T08:15:21.177Z,-4.17
2017-01-19T08:16:20.637Z,-4.16
2017-01-19T08:17:21.437Z,-4.06
2017-01-19T08:18:22.099Z,-4.09
2017-01-19T08:19:20.920Z,-4.04
2017-01-19T08:20:20.947Z,-4.12
2017-01-19T08:21:20.880Z,-4.03
2017-01-19T08:22:20.959Z,-4.16
2017-01-19T08:23:20.919Z,-3.99
2017-01-19T08:24:20.863Z,-3.89
2017-01-19T08:25:21.091Z,-3.83
2017-01-19T08:26:22.060Z,-3.89
2017-01-19T08:27:22.114Z,-3.83
2017-01-19T08:28:21.549Z,-3.82
2017-01-19T08:29:21.967Z,-3.95
2017-01-19T08:30:21.309Z,-3.88
2017-01-19T08:31:20.823Z,-3.85
2017-01-19T08:32:21.345Z,-3.82
2017-01-19T08:33:21.150Z,-3.83
2017-01-19T08:34:21.839Z,-3.88
2017-01-19T08:35:21.369Z,-3.78
2017-01-19T08:36:22.228Z,-3.8
2017-01-19T08:37:22.653Z,-3.67
2017-01-19T08:38:21.373Z,-3.66
2017-01-19T08:39:21.316Z,-3.7
2017-01-19T08:40:21.557Z,-3.67
2017-01-19T08:41:21.122Z,-3.67
2017-01-19T08:42:22.204Z,-3.67
2017-01-19T08:43:22.310Z,-3.66
2017-01-19T08:44:21.217Z,-3.63
2017-01-19T08:45:20.987Z,-3.61
2017-01-19T08:46:22.312Z,-3.58
2017-01-19T08:47:21.605Z,-3.48
2017-01-19T08:48:21.193Z,-3.66
2017-01-19T08:49:21.433Z,-3.56
2017-01-19T08:50:22.136Z,-3.64
2017-01-19T08:51:22.685Z,-3.63
2017-01-19T08:52:22.381Z,-3.55
2017-01-19T08:53:21.559Z,-3.66
2017-01-19T08:54:21.509Z,-3.67
2017-01-19T08:55:21.617Z,-3.67
2017-01-19T08:56:21.189Z,-3.61
2017-01-19T08:57:22.120Z,-3.63
2017-01-19T08:58:22.070Z,-3.59
2017-01-19T08:59:21.178Z,-3.44
2017-01-19T09:00:21.193Z,-3.45
2017-01-19T09:01:21.134Z,-3.45
2017-01-19T09:02:21.516Z,-3.45
2017-01-19T09:03:21.597Z,-3.44
2017-01-19T09:04:21.901Z,-3.48
2017-01-19T09:05:21.466Z,-3.4
2017-01-19T09:06:21.704Z,-3.44
2017-01-19T09:07:21.654Z,-3.37
2017-01-19T09:08:22.597Z,-3.41
2017-01-19T09:09:22.057Z,-3.41
2017-01-19T09:10:21.424Z,-3.58
2017-01-19T09:11:21.368Z,-3.49
2017-01-19T09:12:22.970Z,-3.67
2017-01-19T09:13:21.504Z,-3.63
2017-01-19T09:14:21.972Z,-3.61
2017-01-19T09:15:21.860Z,-3.52
2017-01-19T09:16:22.011Z,-3.59
2017-01-19T09:17:22.444Z,-3.66
2017-01-19T09:18:21.967Z,-3.48
2017-01-19T09:19:21.478Z,-3.41
2017-01-19T09:20:21.798Z,-3.48
2017-01-19T09:21:21.446Z,-3.58
2017-01-19T09:22:21.689Z,-3.56
2017-01-19T09:23:22.464Z,-3.41
2017-01-19T09:24:21.606Z,-3.41
2017-01-19T09:25:22.711Z,-3.4
2017-01-19T09:26:21.398Z,-3.38
2017-01-19T09:27:22.595Z,-3.38
2017-01-19T09:28:22.320Z,-3.4
2017-01-19T09:29:21.963Z,-3.37
2017-01-19T09:30:22.244Z,-3.45
2017-01-19T09:31:22.431Z,-3.4
2017-01-19T09:32:22.097Z,-3.16
2017-01-19T09:33:21.449Z,-3.09
2017-01-19T09:34:22.383Z,-2.99
2017-01-19T09:35:22.249Z,-2.91
2017-01-19T09:36:22.075Z,-2.84
2017-01-19T09:37:22.060Z,-2.95
2017-01-19T09:38:22.368Z,-2.48
2017-01-19T09:39:21.674Z,-2.56
2017-01-19T09:40:22.191Z,-2.16
2017-01-19T09:41:22.142Z,-1.86
2017-01-19T09:42:22.626Z,-2
2017-01-19T09:43:22.020Z,-1.98
2017-01-19T09:44:21.796Z,-2.05
2017-01-19T09:45:22.711Z,-2.19
2017-01-19T09:46:22.154Z,-2.41
2017-01-19T09:47:21.735Z,-2.23
2017-01-19T09:48:22.186Z,-2.52
2017-01-19T09:49:22.035Z,-2.4
2017-01-19T09:50:22.151Z,-2.18
2017-01-19T09:51:22.583Z,-2.07
2017-01-19T09:52:22.776Z,-1.97
2017-01-19T09:53:23.196Z,-1.76
2017-01-19T09:54:21.955Z,-1.74
2017-01-19T09:55:22.443Z,-2
2017-01-19T09:56:22.150Z,-1.97
2017-01-19T09:57:22.194Z,-2.19
2017-01-19T09:58:22.249Z,-1.87
2017-01-19T09:59:22.668Z,-1.95
2017-01-19T10:00:21.903Z,-1.84
2017-01-19T10:01:22.829Z,-1.9
2017-01-19T10:02:22.762Z,-2.07
2017-01-19T10:03:22.629Z,-2.01
2017-01-19T10:04:21.881Z,-2.12
2017-01-19T10:05:22.000Z,-2.08
2017-01-19T10:06:22.551Z,-2.22
2017-01-19T10:07:22.794Z,-2.12
2017-01-19T10:08:22.246Z,-2.1
2017-01-19T10:09:22.729Z,-2.05
2017-01-19T10:10:23.342Z,-1.48
2017-01-19T10:11:22.996Z,-1.68
2017-01-19T10:12:22.854Z,-1.69
2017-01-19T10:13:22.728Z,-1.58
2017-01-19T10:14:24.073Z,-1.38
2017-01-19T10:15:22.567Z,-1.11
2017-01-19T10:16:22.496Z,-1.56
2017-01-19T10:17:22.258Z,-1.68
2017-01-19T10:18:22.330Z,-1.61
2017-01-19T10:19:22.103Z,-1.47
2017-01-19T10:20:22.714Z,-1.33
2017-01-19T10:21:22.288Z,-1.32
2017-01-19T10:22:22.609Z,-1.47
2017-01-19T10:23:22.611Z,-1.56
2017-01-19T10:24:22.439Z,-1.65
2017-01-19T10:25:22.615Z,-1.71
2017-01-19T10:26:22.198Z,-1.86
2017-01-19T10:27:22.808Z,-1.92
2017-01-19T10:28:22.704Z,-1.65
2017-01-19T10:29:22.306Z,-1.48
2017-01-19T10:30:23.142Z,-1.4
2017-01-19T10:31:22.870Z,-1.25
2017-01-19T10:32:22.772Z,-1.09
2017-01-19T10:33:22.426Z,-0.96
2017-01-19T10:34:23.696Z,-1.17
2017-01-19T10:35:22.143Z,-1.33
2017-01-19T10:36:22.506Z,-1.08
2017-01-19T10:37:22.528Z,-0.86
2017-01-19T10:38:22.520Z,-0.86
2017-01-19T10:39:22.703Z,-0.67
2017-01-19T10:40:22.580Z,-0.53
2017-01-19T10:41:23.395Z,-0.65
2017-01-19T10:42:22.337Z,-0.5
2017-01-19T10:43:23.016Z,-0.62
2017-01-19T10:44:22.934Z,-0.57
2017-01-19T10:45:22.995Z,-0.38
2017-01-19T10:46:22.587Z,-0.52
2017-01-19T10:47:22.543Z,-0.25
2017-01-19T10:48:23.339Z,0.03
2017-01-19T10:49:22.610Z,0.16
2017-01-19T10:50:23.323Z,0.41
2017-01-19T10:51:22.323Z,0.52
2017-01-19T10:52:23.098Z,0.43
2017-01-19T10:53:22.448Z,0.41
2017-01-19T10:54:24.013Z,0.32
2017-01-19T10:55:23.455Z,0.22
2017-01-19T10:56:23.408Z,0.5
2017-01-19T10:57:23.254Z,0.29
2017-01-19T10:58:23.000Z,0.39
2017-01-19T10:59:23.465Z,0.31
2017-01-19T11:00:24.729Z,0.5
2017-01-19T11:01:22.833Z,0.63
2017-01-19T11:02:23.017Z,0.36
2017-01-19T11:03:23.640Z,0.47
2017-01-19T11:04:24.342Z,0.5
2017-01-19T11:05:23.229Z,0.49
2017-01-19T11:06:23.985Z,0.74
2017-01-19T11:07:23.167Z,0.74
2017-01-19T11:08:23.406Z,0.8
2017-01-19T11:09:23.353Z,0.78
2017-01-19T11:10:23.701Z,1.14
2017-01-19T11:11:23.570Z,0.87
2017-01-19T11:12:22.773Z,0.6
2017-01-19T11:13:23.334Z,0.86
2017-01-19T11:14:23.858Z,1.16
2017-01-19T11:15:23.098Z,1.22
2017-01-19T11:16:23.648Z,1.14
2017-01-19T11:17:23.864Z,1.1
2017-01-19T11:18:22.808Z,1.2
2017-01-19T11:19:23.173Z,1.06
2017-01-19T11:20:23.855Z,0.81
2017-01-19T11:21:22.771Z,0.59
2017-01-19T11:22:22.931Z,0.43
2017-01-19T11:23:23.014Z,0.49
2017-01-19T11:24:23.214Z,0.5
2017-01-19T11:25:23.547Z,0.49
2017-01-19T11:26:24.315Z,0.8
2017-01-19T11:27:24.236Z,0.59
2017-01-19T11:28:24.103Z,1.24
2017-01-19T11:29:22.944Z,1.55
2017-01-19T11:30:23.146Z,1.59
2017-01-19T11:31:23.477Z,1.74
2017-01-19T11:32:23.663Z,1.62
2017-01-19T11:33:23.039Z,1.68
2017-01-19T11:34:23.297Z,1.78
2017-01-19T11:35:23.403Z,1.58
2017-01-19T11:36:23.547Z,1.6
2017-01-19T11:37:23.706Z,1.5
2017-01-19T11:38:23.432Z,1.5
2017-01-19T11:39:22.879Z,1.31
2017-01-19T11:40:23.168Z,1.38
2017-01-19T11:41:22.974Z,1.13
2017-01-19T11:42:24.119Z,1.13
2017-01-19T11:43:24.532Z,1.37
2017-01-19T11:44:24.044Z,1.55
2017-01-19T11:45:23.305Z,1.94
2017-01-19T11:46:23.871Z,2.25
2017-01-19T11:47:23.861Z,2.15
2017-01-19T11:48:23.454Z,2.04
2017-01-19T11:49:24.245Z,2.17
2017-01-19T11:50:24.259Z,1.78
2017-01-19T11:51:24.649Z,1.85
2017-01-19T11:52:23.598Z,2.18
2017-01-19T11:53:24.782Z,2.51
2017-01-19T11:54:23.806Z,2.67
2017-01-19T11:55:23.602Z,2.98
2017-01-19T11:56:23.858Z,3.08
2017-01-19T11:57:23.586Z,3.14
2017-01-19T11:58:23.582Z,3.19
2017-01-19T11:59:23.868Z,3.1
2017-01-19T12:00:23.709Z,3.18
2017-01-19T12:01:23.952Z,2.98
2017-01-19T12:02:23.990Z,2.44
2017-01-19T12:03:23.901Z,1.94
2017-01-19T12:04:23.697Z,2.2
2017-01-19T12:05:23.767Z,2.97
2017-01-19T12:06:23.983Z,3.36
2017-01-19T12:07:23.563Z,3.83
2017-01-19T12:08:23.947Z,4.14
2017-01-19T12:09:24.456Z,4.44
2017-01-19T12:10:24.172Z,4.74
2017-01-19T12:11:23.498Z,5.2
2017-01-19T12:12:24.447Z,5.57
2017-01-19T12:13:23.707Z,5.46
2017-01-19T12:14:24.440Z,5.5
2017-01-19T12:15:23.940Z,5.93
2017-01-19T12:16:24.647Z,6.12
2017-01-19T12:17:25.822Z,6.38
2017-01-19T12:18:24.806Z,6.51
2017-01-19T12:19:24.590Z,6.2
2017-01-19T12:20:24.466Z,4.96
2017-01-19T12:21:23.375Z,4.34
2017-01-19T12:22:23.741Z,4.23
2017-01-19T12:23:24.682Z,4.52
2017-01-19T12:24:24.468Z,3.99
2017-01-19T12:25:25.143Z,4.67
2017-01-19T12:26:24.275Z,4.7
2017-01-19T12:27:24.792Z,4.86
2017-01-19T12:28:23.966Z,5.18
2017-01-19T12:29:24.575Z,5.61
2017-01-19T12:30:24.504Z,5.66
2017-01-19T12:31:25.376Z,5.87
2017-01-19T12:32:24.406Z,5.94
2017-01-19T12:33:23.709Z,6.09
2017-01-19T12:34:24.636Z,5.62
2017-01-19T12:35:24.583Z,5.08
2017-01-19T12:36:26.367Z,5.25
2017-01-19T12:37:24.841Z,5.17
2017-01-19T12:38:24.812Z,4.68
2017-01-19T12:39:24.046Z,3.95
2017-01-19T12:40:24.429Z,4.45
2017-01-19T12:41:24.824Z,4.26
2017-01-19T12:42:24.779Z,3.74
2017-01-19T12:43:25.065Z,3.6
2017-01-19T12:44:24.783Z,3.73
2017-01-19T12:45:24.543Z,4.42
2017-01-19T12:46:25.152Z,5.23
2017-01-19T12:47:24.513Z,5.43
2017-01-19T12:48:24.704Z,5.8
2017-01-19T12:49:24.450Z,5.98
2017-01-19T12:50:25.128Z,6.17
2017-01-19T12:51:24.714Z,6.44
2017-01-19T12:52:25.193Z,6.49
2017-01-19T12:53:25.040Z,5.8
2017-01-19T12:54:24.527Z,5.9
2017-01-19T12:55:24.906Z,5.84
2017-01-19T12:56:24.930Z,5.68
2017-01-19T12:57:25.237Z,5.36
2017-01-19T12:58:25.558Z,5.56
2017-01-19T12:59:25.018Z,5.73
2017-01-19T13:00:25.289Z,6.14